sensor_id;sensor_type;location;lat;lon;timestamp;temperature;humidity
20380;DHT22;10349;48.666;8.948;2024-01-15T00:01:46;-2.70;99.90
20380;DHT22;10349;48.666;8.948;2024-01-15T00:04:12;-2.70;99.90
20380;DHT22;10349;48.666;8.948;2024-01-15T00:06:37;-2.70;99.90
20380;DHT22;10349;48.666;8.948;2024-01-15T00:09:03;-2.60;99.90
20380;DHT22;10349;48.666;8.948;2024-01-15T00:11:28;-2.60;99.90
20380;DHT22;10349;48.666;8.948;2024-01-15T00:13:54;-2.60;99.90
20380;DHT22;10349;48.666;8.948;2024-01-15T00:16:20;-2.60;99.90
20380;DHT22;10349;48.666;8.948;2024-01-15T00:18:45;-2.60;99.90
20380;DHT22;10349;48.666;8.948;2024-01-15T00:21:11;-2.60;99.90
20380;DHT22;10349;48.666;8.948;2024-01-15T00:23:36;-2.60;99.90
20380;DHT22;10349;48.666;8.948;2024-01-15T00:26:02;-2.60;99.90
20380;DHT22;10349;48.666;8.948;2024-01-15T00:28:28;-2.60;99.90
20380;DHT22;10349;48.666;8.948;2024-01-15T00:30:53;-2.60;99.90
20380;DHT22;10349;48.666;8.948;2024-01-15T00:33:19;-2.60;99.90
20380;DHT22;10349;48.666;8.948;2024-01-15T00:35:44;-2.60;99.90
20380;DHT22;10349;48.666;8.948;2024-01-15T00:38:10;-2.60;99.90
20380;DHT22;10349;48.666;8.948;2024-01-15T00:40:36;-2.60;99.90
20380;DHT22;10349;48.666;8.948;2024-01-15T00:43:01;-2.70;99.90
20380;DHT22;10349;48.666;8.948;2024-01-15T00:45:28;-2.70;99.90
20380;DHT22;10349;48.666;8.948;2024-01-15T00:47:53;-2.70;99.90
20380;DHT22;10349;48.666;8.948;2024-01-15T00:50:22;-2.70;99.90
20380;DHT22;10349;48.666;8.948;2024-01-15T00:52:47;-2.80;99.90
20380;DHT22;10349;48.666;8.948;2024-01-15T00:55:13;-2.80;99.90
20380;DHT22;10349;48.666;8.948;2024-01-15T00:57:40;-2.80;99.90
20380;DHT22;10349;48.666;8.948;2024-01-15T01:00:06;-2.80;99.90
20380;DHT22;10349;48.666;8.948;2024-01-15T01:02:32;-2.80;99.90
20380;DHT22;10349;48.666;8.948;2024-01-15T01:04:57;-2.80;99.90
20380;DHT22;10349;48.666;8.948;2024-01-15T01:07:23;-2.80;99.90
20380;DHT22;10349;48.666;8.948;2024-01-15T01:09:48;-2.70;99.90
20380;DHT22;10349;48.666;8.948;2024-01-15T01:12:14;-2.70;99.90
20380;DHT22;10349;48.666;8.948;2024-01-15T01:14:40;-2.70;99.90
20380;DHT22;10349;48.666;8.948;2024-01-15T01:17:06;-2.70;99.90
20380;DHT22;10349;48.666;8.948;2024-01-15T01:19:31;-2.60;99.90
20380;DHT22;10349;48.666;8.948;2024-01-15T01:21:57;-2.60;99.90
20380;DHT22;10349;48.666;8.948;2024-01-15T01:24:22;-2.50;99.90
20380;DHT22;10349;48.666;8.948;2024-01-15T01:26:48;-2.50;99.90
20380;DHT22;10349;48.666;8.948;2024-01-15T01:29:14;-2.50;99.90
20380;DHT22;10349;48.666;8.948;2024-01-15T01:31:44;-2.40;99.90
20380;DHT22;10349;48.666;8.948;2024-01-15T01:34:10;-2.40;99.90
20380;DHT22;10349;48.666;8.948;2024-01-15T01:36:35;-2.40;99.90
20380;DHT22;10349;48.666;8.948;2024-01-15T01:39:01;-2.40;99.90
20380;DHT22;10349;48.666;8.948;2024-01-15T01:41:27;-2.40;99.90
20380;DHT22;10349;48.666;8.948;2024-01-15T01:43:52;-2.40;99.90
20380;DHT22;10349;48.666;8.948;2024-01-15T01:46:18;-2.30;99.90
20380;DHT22;10349;48.666;8.948;2024-01-15T01:48:44;-2.40;99.90
20380;DHT22;10349;48.666;8.948;2024-01-15T01:51:09;-2.40;99.90
20380;DHT22;10349;48.666;8.948;2024-01-15T01:53:36;-2.40;99.90
20380;DHT22;10349;48.666;8.948;2024-01-15T01:56:06;-2.40;99.90
20380;DHT22;10349;48.666;8.948;2024-01-15T01:58:33;-2.40;99.90
20380;DHT22;10349;48.666;8.948;2024-01-15T02:00:59;-2.40;99.90
20380;DHT22;10349;48.666;8.948;2024-01-15T02:03:27;-2.40;99.90
20380;DHT22;10349;48.666;8.948;2024-01-15T02:05:52;-2.40;99.90
20380;DHT22;10349;48.666;8.948;2024-01-15T02:08:18;-2.40;99.90
20380;DHT22;10349;48.666;8.948;2024-01-15T02:10:44;-2.40;99.90
20380;DHT22;10349;48.666;8.948;2024-01-15T02:13:10;-2.40;99.90
20380;DHT22;10349;48.666;8.948;2024-01-15T02:15:36;-2.40;99.90
20380;DHT22;10349;48.666;8.948;2024-01-15T02:18:03;-2.40;99.90
20380;DHT22;10349;48.666;8.948;2024-01-15T02:20:30;-2.40;99.90
20380;DHT22;10349;48.666;8.948;2024-01-15T02:23:13;-2.40;99.90
20380;DHT22;10349;48.666;8.948;2024-01-15T02:25:46;-2.40;99.90
20380;DHT22;10349;48.666;8.948;2024-01-15T02:28:15;-2.40;99.90
20380;DHT22;10349;48.666;8.948;2024-01-15T02:30:42;-2.40;99.90
20380;DHT22;10349;48.666;8.948;2024-01-15T02:33:08;-2.40;99.90
20380;DHT22;10349;48.666;8.948;2024-01-15T02:35:35;-2.40;99.90
20380;DHT22;10349;48.666;8.948;2024-01-15T02:38:04;-2.40;99.90
20380;DHT22;10349;48.666;8.948;2024-01-15T02:40:30;-2.40;99.90
20380;DHT22;10349;48.666;8.948;2024-01-15T02:42:56;-2.40;99.90
20380;DHT22;10349;48.666;8.948;2024-01-15T02:45:22;-2.50;99.90
20380;DHT22;10349;48.666;8.948;2024-01-15T02:47:48;-2.50;99.90
20380;DHT22;10349;48.666;8.948;2024-01-15T02:50:14;-2.50;99.90
20380;DHT22;10349;48.666;8.948;2024-01-15T02:52:41;-2.50;99.90
20380;DHT22;10349;48.666;8.948;2024-01-15T02:55:07;-2.50;99.90
20380;DHT22;10349;48.666;8.948;2024-01-15T02:57:33;-2.50;99.90
20380;DHT22;10349;48.666;8.948;2024-01-15T02:59:59;-2.50;99.90
20380;DHT22;10349;48.666;8.948;2024-01-15T03:02:24;-2.50;99.90
20380;DHT22;10349;48.666;8.948;2024-01-15T03:04:50;-2.40;99.90
20380;DHT22;10349;48.666;8.948;2024-01-15T03:07:15;-2.40;99.90
20380;DHT22;10349;48.666;8.948;2024-01-15T03:09:41;-2.40;99.90
20380;DHT22;10349;48.666;8.948;2024-01-15T03:12:07;-2.40;99.90
20380;DHT22;10349;48.666;8.948;2024-01-15T03:14:33;-2.40;99.90
20380;DHT22;10349;48.666;8.948;2024-01-15T03:16:58;-2.40;99.90
20380;DHT22;10349;48.666;8.948;2024-01-15T03:19:26;-2.30;99.90
20380;DHT22;10349;48.666;8.948;2024-01-15T03:21:51;-2.30;99.90
20380;DHT22;10349;48.666;8.948;2024-01-15T03:24:17;-2.30;99.90
20380;DHT22;10349;48.666;8.948;2024-01-15T03:26:43;-2.30;99.90
20380;DHT22;10349;48.666;8.948;2024-01-15T03:29:08;-2.20;99.90
20380;DHT22;10349;48.666;8.948;2024-01-15T03:31:34;-2.20;99.90
20380;DHT22;10349;48.666;8.948;2024-01-15T03:34:00;-2.20;99.90
20380;DHT22;10349;48.666;8.948;2024-01-15T03:36:26;-2.20;99.90
20380;DHT22;10349;48.666;8.948;2024-01-15T03:38:51;-2.10;99.90
20380;DHT22;10349;48.666;8.948;2024-01-15T03:41:17;-2.10;99.90
20380;DHT22;10349;48.666;8.948;2024-01-15T03:43:43;-2.10;99.90
20380;DHT22;10349;48.666;8.948;2024-01-15T03:46:09;-2.10;99.90
20380;DHT22;10349;48.666;8.948;2024-01-15T03:48:34;-2.00;99.90
20380;DHT22;10349;48.666;8.948;2024-01-15T03:51:00;-2.00;99.90
20380;DHT22;10349;48.666;8.948;2024-01-15T03:53:26;-2.00;99.90
20380;DHT22;10349;48.666;8.948;2024-01-15T03:55:51;-2.00;99.90
20380;DHT22;10349;48.666;8.948;2024-01-15T03:58:17;-2.00;99.90
20380;DHT22;10349;48.666;8.948;2024-01-15T04:00:43;-2.00;99.90
20380;DHT22;10349;48.666;8.948;2024-01-15T04:03:09;-1.90;99.90
20380;DHT22;10349;48.666;8.948;2024-01-15T04:05:35;-1.90;99.90
20380;DHT22;10349;48.666;8.948;2024-01-15T04:08:01;-1.90;99.90
20380;DHT22;10349;48.666;8.948;2024-01-15T04:10:26;-1.90;99.90
20380;DHT22;10349;48.666;8.948;2024-01-15T04:12:52;-1.90;99.90
20380;DHT22;10349;48.666;8.948;2024-01-15T04:15:18;-1.90;99.90
20380;DHT22;10349;48.666;8.948;2024-01-15T04:17:43;-1.90;99.90
20380;DHT22;10349;48.666;8.948;2024-01-15T04:20:09;-1.90;99.90
20380;DHT22;10349;48.666;8.948;2024-01-15T04:22:35;-1.90;99.90
20380;DHT22;10349;48.666;8.948;2024-01-15T04:25:01;-1.90;99.90
20380;DHT22;10349;48.666;8.948;2024-01-15T04:27:27;-1.90;99.90
20380;DHT22;10349;48.666;8.948;2024-01-15T04:29:53;-1.90;99.90
20380;DHT22;10349;48.666;8.948;2024-01-15T04:32:19;-1.90;99.90
20380;DHT22;10349;48.666;8.948;2024-01-15T04:34:45;-1.90;99.90
20380;DHT22;10349;48.666;8.948;2024-01-15T04:37:11;-1.90;99.90
20380;DHT22;10349;48.666;8.948;2024-01-15T04:39:36;-1.90;99.90
20380;DHT22;10349;48.666;8.948;2024-01-15T04:42:02;-1.90;99.90
20380;DHT22;10349;48.666;8.948;2024-01-15T04:44:28;-1.90;99.90
20380;DHT22;10349;48.666;8.948;2024-01-15T04:46:54;-1.90;99.90
20380;DHT22;10349;48.666;8.948;2024-01-15T04:49:20;-1.90;99.90
20380;DHT22;10349;48.666;8.948;2024-01-15T04:51:45;-1.90;99.90
20380;DHT22;10349;48.666;8.948;2024-01-15T04:54:11;-1.90;99.90
20380;DHT22;10349;48.666;8.948;2024-01-15T04:56:37;-1.90;99.90
20380;DHT22;10349;48.666;8.948;2024-01-15T04:59:03;-1.90;99.90
20380;DHT22;10349;48.666;8.948;2024-01-15T05:01:32;-1.90;99.90
20380;DHT22;10349;48.666;8.948;2024-01-15T05:03:58;-1.90;99.90
20380;DHT22;10349;48.666;8.948;2024-01-15T05:06:24;-1.90;99.90
20380;DHT22;10349;48.666;8.948;2024-01-15T05:08:50;-1.90;99.90
20380;DHT22;10349;48.666;8.948;2024-01-15T05:11:15;-1.90;99.90
20380;DHT22;10349;48.666;8.948;2024-01-15T05:13:41;-1.90;99.90
20380;DHT22;10349;48.666;8.948;2024-01-15T05:16:07;-1.90;99.90
20380;DHT22;10349;48.666;8.948;2024-01-15T05:18:32;-1.90;99.90
20380;DHT22;10349;48.666;8.948;2024-01-15T05:20:58;-1.90;99.90
20380;DHT22;10349;48.666;8.948;2024-01-15T05:23:23;-1.80;99.90
20380;DHT22;10349;48.666;8.948;2024-01-15T05:25:49;-1.90;99.90
20380;DHT22;10349;48.666;8.948;2024-01-15T05:28:14;-1.90;99.90
20380;DHT22;10349;48.666;8.948;2024-01-15T05:30:40;-1.90;99.90
20380;DHT22;10349;48.666;8.948;2024-01-15T05:33:06;-1.90;99.90
20380;DHT22;10349;48.666;8.948;2024-01-15T05:35:33;-1.80;99.90
20380;DHT22;10349;48.666;8.948;2024-01-15T05:37:58;-1.80;99.90
20380;DHT22;10349;48.666;8.948;2024-01-15T05:40:24;-1.90;99.90
20380;DHT22;10349;48.666;8.948;2024-01-15T05:42:50;-1.90;99.90
20380;DHT22;10349;48.666;8.948;2024-01-15T05:45:15;-1.90;99.90
20380;DHT22;10349;48.666;8.948;2024-01-15T05:47:41;-1.90;99.90
20380;DHT22;10349;48.666;8.948;2024-01-15T05:50:07;-1.90;99.90
20380;DHT22;10349;48.666;8.948;2024-01-15T05:52:32;-1.90;99.90
20380;DHT22;10349;48.666;8.948;2024-01-15T05:54:58;-1.90;99.90
20380;DHT22;10349;48.666;8.948;2024-01-15T05:57:24;-2.00;99.90
20380;DHT22;10349;48.666;8.948;2024-01-15T05:59:49;-1.90;99.90
20380;DHT22;10349;48.666;8.948;2024-01-15T06:02:15;-1.90;99.90
20380;DHT22;10349;48.666;8.948;2024-01-15T06:04:41;-1.90;99.90
20380;DHT22;10349;48.666;8.948;2024-01-15T06:07:06;-1.90;99.90
20380;DHT22;10349;48.666;8.948;2024-01-15T06:09:32;-1.90;99.90
20380;DHT22;10349;48.666;8.948;2024-01-15T06:11:57;-1.90;99.90
20380;DHT22;10349;48.666;8.948;2024-01-15T06:14:23;-1.90;99.90
20380;DHT22;10349;48.666;8.948;2024-01-15T06:16:48;-1.90;99.90
20380;DHT22;10349;48.666;8.948;2024-01-15T06:19:14;-1.90;99.90
20380;DHT22;10349;48.666;8.948;2024-01-15T06:21:40;-1.90;99.90
20380;DHT22;10349;48.666;8.948;2024-01-15T06:24:06;-1.90;99.90
20380;DHT22;10349;48.666;8.948;2024-01-15T06:26:32;-1.80;99.90
20380;DHT22;10349;48.666;8.948;2024-01-15T06:28:58;-1.90;99.90
20380;DHT22;10349;48.666;8.948;2024-01-15T06:31:24;-1.90;99.90
20380;DHT22;10349;48.666;8.948;2024-01-15T06:33:49;-1.90;99.90
20380;DHT22;10349;48.666;8.948;2024-01-15T06:36:15;-1.90;99.90
20380;DHT22;10349;48.666;8.948;2024-01-15T06:38:44;-1.90;99.90
20380;DHT22;10349;48.666;8.948;2024-01-15T06:41:10;-1.90;99.90
20380;DHT22;10349;48.666;8.948;2024-01-15T06:43:35;-1.90;99.90
20380;DHT22;10349;48.666;8.948;2024-01-15T06:46:01;-1.90;99.90
20380;DHT22;10349;48.666;8.948;2024-01-15T06:48:26;-1.90;99.90
20380;DHT22;10349;48.666;8.948;2024-01-15T06:50:52;-1.90;99.90
20380;DHT22;10349;48.666;8.948;2024-01-15T06:53:18;-2.00;99.90
20380;DHT22;10349;48.666;8.948;2024-01-15T06:55:44;-2.00;99.90
20380;DHT22;10349;48.666;8.948;2024-01-15T06:58:09;-2.00;99.90
20380;DHT22;10349;48.666;8.948;2024-01-15T07:00:35;-2.00;99.90
20380;DHT22;10349;48.666;8.948;2024-01-15T07:03:01;-2.00;99.90
20380;DHT22;10349;48.666;8.948;2024-01-15T07:05:26;-2.00;99.90
20380;DHT22;10349;48.666;8.948;2024-01-15T07:07:52;-2.00;99.90
20380;DHT22;10349;48.666;8.948;2024-01-15T07:10:17;-2.00;99.90
20380;DHT22;10349;48.666;8.948;2024-01-15T07:12:43;-2.00;99.90
20380;DHT22;10349;48.666;8.948;2024-01-15T07:15:09;-2.00;99.90
20380;DHT22;10349;48.666;8.948;2024-01-15T07:17:35;-2.00;99.90
20380;DHT22;10349;48.666;8.948;2024-01-15T07:20:01;-1.90;99.90
20380;DHT22;10349;48.666;8.948;2024-01-15T07:22:27;-2.00;99.90
20380;DHT22;10349;48.666;8.948;2024-01-15T07:24:53;-2.00;99.90
20380;DHT22;10349;48.666;8.948;2024-01-15T07:27:19;-2.00;99.90
20380;DHT22;10349;48.666;8.948;2024-01-15T07:29:45;-2.00;99.90
20380;DHT22;10349;48.666;8.948;2024-01-15T07:32:11;-1.90;99.90
20380;DHT22;10349;48.666;8.948;2024-01-15T07:34:37;-1.90;99.90
20380;DHT22;10349;48.666;8.948;2024-01-15T07:37:02;-1.90;99.90
20380;DHT22;10349;48.666;8.948;2024-01-15T07:39:28;-1.90;99.90
20380;DHT22;10349;48.666;8.948;2024-01-15T07:41:54;-1.90;99.90
20380;DHT22;10349;48.666;8.948;2024-01-15T07:44:20;-1.80;99.90
20380;DHT22;10349;48.666;8.948;2024-01-15T07:46:46;-1.80;99.90
20380;DHT22;10349;48.666;8.948;2024-01-15T07:49:12;-1.80;99.90
20380;DHT22;10349;48.666;8.948;2024-01-15T07:51:38;-1.70;99.90
20380;DHT22;10349;48.666;8.948;2024-01-15T07:54:06;-1.70;99.90
20380;DHT22;10349;48.666;8.948;2024-01-15T07:56:32;-1.70;99.90
20380;DHT22;10349;48.666;8.948;2024-01-15T07:58:58;-1.70;99.90
20380;DHT22;10349;48.666;8.948;2024-01-15T08:01:23;-1.60;99.90
20380;DHT22;10349;48.666;8.948;2024-01-15T08:03:49;-1.60;99.90
20380;DHT22;10349;48.666;8.948;2024-01-15T08:06:15;-1.60;99.90
20380;DHT22;10349;48.666;8.948;2024-01-15T08:08:41;-1.60;99.90
20380;DHT22;10349;48.666;8.948;2024-01-15T08:11:06;-1.60;99.90
20380;DHT22;10349;48.666;8.948;2024-01-15T08:13:32;-1.50;99.90
20380;DHT22;10349;48.666;8.948;2024-01-15T08:15:58;-1.50;99.90
20380;DHT22;10349;48.666;8.948;2024-01-15T08:18:24;-1.40;99.90
20380;DHT22;10349;48.666;8.948;2024-01-15T08:20:50;-1.40;99.90
20380;DHT22;10349;48.666;8.948;2024-01-15T08:23:17;-1.40;99.90
20380;DHT22;10349;48.666;8.948;2024-01-15T08:25:43;-1.30;99.90
20380;DHT22;10349;48.666;8.948;2024-01-15T08:28:08;-1.30;99.90
20380;DHT22;10349;48.666;8.948;2024-01-15T08:30:34;-1.30;99.90
20380;DHT22;10349;48.666;8.948;2024-01-15T08:33:00;-1.20;99.90
20380;DHT22;10349;48.666;8.948;2024-01-15T08:35:26;-1.20;99.90
20380;DHT22;10349;48.666;8.948;2024-01-15T08:37:54;-1.10;99.90
20380;DHT22;10349;48.666;8.948;2024-01-15T08:40:20;-1.10;99.90
20380;DHT22;10349;48.666;8.948;2024-01-15T08:42:46;-1.10;99.90
20380;DHT22;10349;48.666;8.948;2024-01-15T08:45:12;-1.00;99.90
20380;DHT22;10349;48.666;8.948;2024-01-15T08:47:38;-1.00;99.90
20380;DHT22;10349;48.666;8.948;2024-01-15T08:50:04;-1.00;99.90
20380;DHT22;10349;48.666;8.948;2024-01-15T08:52:30;-1.00;99.90
20380;DHT22;10349;48.666;8.948;2024-01-15T08:54:56;-1.00;99.90
20380;DHT22;10349;48.666;8.948;2024-01-15T08:57:22;-0.90;99.90
20380;DHT22;10349;48.666;8.948;2024-01-15T08:59:48;-0.90;99.90
20380;DHT22;10349;48.666;8.948;2024-01-15T09:02:13;-0.90;99.90
20380;DHT22;10349;48.666;8.948;2024-01-15T09:04:40;-0.90;99.90
20380;DHT22;10349;48.666;8.948;2024-01-15T09:07:06;-0.90;99.90
20380;DHT22;10349;48.666;8.948;2024-01-15T09:09:32;-0.80;99.90
20380;DHT22;10349;48.666;8.948;2024-01-15T09:11:57;-0.80;99.90
20380;DHT22;10349;48.666;8.948;2024-01-15T09:14:23;-0.80;99.90
20380;DHT22;10349;48.666;8.948;2024-01-15T09:16:50;-0.80;99.90
20380;DHT22;10349;48.666;8.948;2024-01-15T09:19:16;-0.80;99.90
20380;DHT22;10349;48.666;8.948;2024-01-15T09:21:41;-0.70;99.90
20380;DHT22;10349;48.666;8.948;2024-01-15T09:24:07;-0.80;99.90
20380;DHT22;10349;48.666;8.948;2024-01-15T09:26:32;-0.80;99.90
20380;DHT22;10349;48.666;8.948;2024-01-15T09:28:58;-0.80;99.90
20380;DHT22;10349;48.666;8.948;2024-01-15T09:31:24;-0.80;99.90
20380;DHT22;10349;48.666;8.948;2024-01-15T09:33:49;-0.80;99.90
20380;DHT22;10349;48.666;8.948;2024-01-15T09:36:18;-0.70;99.90
20380;DHT22;10349;48.666;8.948;2024-01-15T09:38:43;-0.70;99.90
20380;DHT22;10349;48.666;8.948;2024-01-15T09:41:09;-0.70;99.90
20380;DHT22;10349;48.666;8.948;2024-01-15T09:43:36;-0.70;99.90
20380;DHT22;10349;48.666;8.948;2024-01-15T09:46:03;-0.60;99.90
20380;DHT22;10349;48.666;8.948;2024-01-15T09:48:29;-0.60;99.90
20380;DHT22;10349;48.666;8.948;2024-01-15T09:50:57;-0.60;99.90
20380;DHT22;10349;48.666;8.948;2024-01-15T09:53:25;-0.50;99.90
20380;DHT22;10349;48.666;8.948;2024-01-15T09:55:52;-0.40;99.90
20380;DHT22;10349;48.666;8.948;2024-01-15T09:58:18;-0.40;99.90
20380;DHT22;10349;48.666;8.948;2024-01-15T10:00:44;-0.40;99.90
20380;DHT22;10349;48.666;8.948;2024-01-15T10:03:13;-0.40;99.90
20380;DHT22;10349;48.666;8.948;2024-01-15T10:05:39;-0.40;99.90
20380;DHT22;10349;48.666;8.948;2024-01-15T10:08:04;-0.40;99.90
20380;DHT22;10349;48.666;8.948;2024-01-15T10:10:31;-0.30;99.90
20380;DHT22;10349;48.666;8.948;2024-01-15T10:12:58;-0.30;99.90
20380;DHT22;10349;48.666;8.948;2024-01-15T10:15:25;-0.30;99.90
20380;DHT22;10349;48.666;8.948;2024-01-15T10:17:51;-0.30;99.90
20380;DHT22;10349;48.666;8.948;2024-01-15T10:20:17;-0.30;99.90
20380;DHT22;10349;48.666;8.948;2024-01-15T10:22:44;-0.30;99.90
20380;DHT22;10349;48.666;8.948;2024-01-15T10:25:13;-0.30;99.90
20380;DHT22;10349;48.666;8.948;2024-01-15T10:27:39;-0.30;99.90
20380;DHT22;10349;48.666;8.948;2024-01-15T10:30:06;-0.30;99.90
20380;DHT22;10349;48.666;8.948;2024-01-15T10:32:32;-0.30;99.90
20380;DHT22;10349;48.666;8.948;2024-01-15T10:34:58;-0.20;99.90
20380;DHT22;10349;48.666;8.948;2024-01-15T10:37:24;-0.20;99.90
20380;DHT22;10349;48.666;8.948;2024-01-15T10:39:51;-0.20;99.90
20380;DHT22;10349;48.666;8.948;2024-01-15T10:42:16;-0.20;99.90
20380;DHT22;10349;48.666;8.948;2024-01-15T10:44:44;-0.20;99.90
20380;DHT22;10349;48.666;8.948;2024-01-15T10:47:12;-0.20;99.90
20380;DHT22;10349;48.666;8.948;2024-01-15T10:49:38;-0.10;99.90
20380;DHT22;10349;48.666;8.948;2024-01-15T10:52:05;-0.20;99.90
20380;DHT22;10349;48.666;8.948;2024-01-15T10:54:32;-0.20;99.90
20380;DHT22;10349;48.666;8.948;2024-01-15T10:56:58;-0.20;99.90
20380;DHT22;10349;48.666;8.948;2024-01-15T10:59:24;-0.20;99.90
20380;DHT22;10349;48.666;8.948;2024-01-15T11:01:50;-0.20;99.90
20380;DHT22;10349;48.666;8.948;2024-01-15T11:04:19;-0.20;99.90
20380;DHT22;10349;48.666;8.948;2024-01-15T11:06:49;-0.30;99.90
20380;DHT22;10349;48.666;8.948;2024-01-15T11:09:18;-0.30;99.90
20380;DHT22;10349;48.666;8.948;2024-01-15T11:11:45;-0.30;99.90
20380;DHT22;10349;48.666;8.948;2024-01-15T11:14:38;-0.30;99.90
20380;DHT22;10349;48.666;8.948;2024-01-15T11:17:04;-0.30;99.90
20380;DHT22;10349;48.666;8.948;2024-01-15T11:19:38;-0.30;99.90
20380;DHT22;10349;48.666;8.948;2024-01-15T11:22:08;-0.30;99.90
20380;DHT22;10349;48.666;8.948;2024-01-15T11:24:39;-0.30;99.90
20380;DHT22;10349;48.666;8.948;2024-01-15T11:27:09;-0.30;99.90
20380;DHT22;10349;48.666;8.948;2024-01-15T11:29:36;-0.30;99.90
20380;DHT22;10349;48.666;8.948;2024-01-15T11:32:08;-0.30;99.90
20380;DHT22;10349;48.666;8.948;2024-01-15T11:34:57;-0.30;99.90
20380;DHT22;10349;48.666;8.948;2024-01-15T11:37:56;-0.20;99.90
20380;DHT22;10349;48.666;8.948;2024-01-15T11:42:58;-0.20;99.90
20380;DHT22;10349;48.666;8.948;2024-01-15T11:45:24;-0.20;99.90
20380;DHT22;10349;48.666;8.948;2024-01-15T11:48:12;-0.20;99.90
20380;DHT22;10349;48.666;8.948;2024-01-15T11:50:45;-0.20;99.90
20380;DHT22;10349;48.666;8.948;2024-01-15T11:53:37;-0.20;99.90
20380;DHT22;10349;48.666;8.948;2024-01-15T11:56:16;-0.20;99.90
20380;DHT22;10349;48.666;8.948;2024-01-15T11:58:44;-0.30;99.90
20380;DHT22;10349;48.666;8.948;2024-01-15T12:01:11;-0.30;99.90
20380;DHT22;10349;48.666;8.948;2024-01-15T12:03:36;-0.40;99.90
20380;DHT22;10349;48.666;8.948;2024-01-15T12:06:05;-0.50;99.90
20380;DHT22;10349;48.666;8.948;2024-01-15T12:08:31;-0.50;99.90
20380;DHT22;10349;48.666;8.948;2024-01-15T12:10:57;-0.60;99.90
20380;DHT22;10349;48.666;8.948;2024-01-15T12:13:22;-0.60;99.90
20380;DHT22;10349;48.666;8.948;2024-01-15T12:15:48;-0.60;99.90
20380;DHT22;10349;48.666;8.948;2024-01-15T12:18:18;-0.60;99.90
20380;DHT22;10349;48.666;8.948;2024-01-15T12:20:45;-0.70;99.90
20380;DHT22;10349;48.666;8.948;2024-01-15T12:23:14;-0.70;99.90
20380;DHT22;10349;48.666;8.948;2024-01-15T12:25:40;-0.70;99.90
20380;DHT22;10349;48.666;8.948;2024-01-15T12:28:06;-0.70;99.90
20380;DHT22;10349;48.666;8.948;2024-01-15T12:30:33;-0.70;99.90
20380;DHT22;10349;48.666;8.948;2024-01-15T12:33:04;-0.70;99.90
20380;DHT22;10349;48.666;8.948;2024-01-15T12:35:29;-0.70;99.90
20380;DHT22;10349;48.666;8.948;2024-01-15T12:37:55;-0.70;99.90
20380;DHT22;10349;48.666;8.948;2024-01-15T12:40:22;-0.70;99.90
20380;DHT22;10349;48.666;8.948;2024-01-15T12:42:48;-0.70;99.90
20380;DHT22;10349;48.666;8.948;2024-01-15T12:45:14;-0.70;99.90
20380;DHT22;10349;48.666;8.948;2024-01-15T12:47:41;-0.70;99.90
20380;DHT22;10349;48.666;8.948;2024-01-15T12:50:11;-0.70;99.90
20380;DHT22;10349;48.666;8.948;2024-01-15T12:52:39;-0.70;99.90
20380;DHT22;10349;48.666;8.948;2024-01-15T12:55:06;-0.70;99.90
20380;DHT22;10349;48.666;8.948;2024-01-15T12:57:32;-0.70;99.90
20380;DHT22;10349;48.666;8.948;2024-01-15T12:59:58;-0.80;99.90
20380;DHT22;10349;48.666;8.948;2024-01-15T13:02:24;-0.70;99.90
20380;DHT22;10349;48.666;8.948;2024-01-15T13:04:50;-0.70;99.90
20380;DHT22;10349;48.666;8.948;2024-01-15T13:07:16;-0.70;99.90
20380;DHT22;10349;48.666;8.948;2024-01-15T13:09:42;-0.80;99.90
20380;DHT22;10349;48.666;8.948;2024-01-15T13:12:08;-0.80;99.90
20380;DHT22;10349;48.666;8.948;2024-01-15T13:14:34;-0.80;99.90
20380;DHT22;10349;48.666;8.948;2024-01-15T13:17:00;-0.70;99.90
20380;DHT22;10349;48.666;8.948;2024-01-15T13:19:25;-0.70;99.90
20380;DHT22;10349;48.666;8.948;2024-01-15T13:21:52;-0.80;99.90
20380;DHT22;10349;48.666;8.948;2024-01-15T13:24:19;-0.80;99.90
20380;DHT22;10349;48.666;8.948;2024-01-15T13:26:45;-0.70;99.90
20380;DHT22;10349;48.666;8.948;2024-01-15T13:29:11;-0.80;99.90
20380;DHT22;10349;48.666;8.948;2024-01-15T13:31:36;-0.80;99.90
20380;DHT22;10349;48.666;8.948;2024-01-15T13:34:03;-0.80;99.90
20380;DHT22;10349;48.666;8.948;2024-01-15T13:36:29;-0.80;99.90
20380;DHT22;10349;48.666;8.948;2024-01-15T13:38:55;-0.70;99.90
20380;DHT22;10349;48.666;8.948;2024-01-15T13:41:21;-0.70;99.90
20380;DHT22;10349;48.666;8.948;2024-01-15T13:43:50;-0.80;99.90
20380;DHT22;10349;48.666;8.948;2024-01-15T13:46:18;-0.80;99.90
20380;DHT22;10349;48.666;8.948;2024-01-15T13:48:44;-0.80;99.90
20380;DHT22;10349;48.666;8.948;2024-01-15T13:51:10;-0.80;99.90
20380;DHT22;10349;48.666;8.948;2024-01-15T13:53:40;-0.80;99.90
20380;DHT22;10349;48.666;8.948;2024-01-15T13:56:06;-0.80;99.90
20380;DHT22;10349;48.666;8.948;2024-01-15T13:58:33;-0.80;99.90
20380;DHT22;10349;48.666;8.948;2024-01-15T14:01:02;-0.80;99.90
20380;DHT22;10349;48.666;8.948;2024-01-15T14:03:31;-0.80;99.90
20380;DHT22;10349;48.666;8.948;2024-01-15T14:05:57;-0.80;99.90
20380;DHT22;10349;48.666;8.948;2024-01-15T14:08:24;-0.80;99.90
20380;DHT22;10349;48.666;8.948;2024-01-15T14:10:50;-0.80;99.90
20380;DHT22;10349;48.666;8.948;2024-01-15T14:13:16;-0.70;99.90
20380;DHT22;10349;48.666;8.948;2024-01-15T14:15:42;-0.70;99.90
20380;DHT22;10349;48.666;8.948;2024-01-15T14:18:08;-0.70;99.90
20380;DHT22;10349;48.666;8.948;2024-01-15T14:20:34;-0.70;99.90
20380;DHT22;10349;48.666;8.948;2024-01-15T14:22:59;-0.70;99.90
20380;DHT22;10349;48.666;8.948;2024-01-15T14:25:25;-0.70;99.90
20380;DHT22;10349;48.666;8.948;2024-01-15T14:27:50;-0.70;99.90
20380;DHT22;10349;48.666;8.948;2024-01-15T14:30:16;-0.80;99.90
20380;DHT22;10349;48.666;8.948;2024-01-15T14:32:43;-0.70;99.90
20380;DHT22;10349;48.666;8.948;2024-01-15T14:35:09;-0.70;99.90
20380;DHT22;10349;48.666;8.948;2024-01-15T14:37:37;-0.70;99.90
20380;DHT22;10349;48.666;8.948;2024-01-15T14:40:04;-0.80;99.90
20380;DHT22;10349;48.666;8.948;2024-01-15T14:42:32;-0.80;99.90
20380;DHT22;10349;48.666;8.948;2024-01-15T14:44:57;-0.80;99.90
20380;DHT22;10349;48.666;8.948;2024-01-15T14:47:23;-0.80;99.90
20380;DHT22;10349;48.666;8.948;2024-01-15T14:49:50;-0.80;99.90
20380;DHT22;10349;48.666;8.948;2024-01-15T14:52:16;-0.90;99.90
20380;DHT22;10349;48.666;8.948;2024-01-15T14:54:41;-1.00;99.90
20380;DHT22;10349;48.666;8.948;2024-01-15T14:57:07;-1.00;99.90
20380;DHT22;10349;48.666;8.948;2024-01-15T14:59:32;-1.10;99.90
20380;DHT22;10349;48.666;8.948;2024-01-15T15:01:58;-1.10;99.90
20380;DHT22;10349;48.666;8.948;2024-01-15T15:04:24;-1.00;99.90
20380;DHT22;10349;48.666;8.948;2024-01-15T15:06:49;-1.10;99.90
20380;DHT22;10349;48.666;8.948;2024-01-15T15:09:15;-1.10;99.90
20380;DHT22;10349;48.666;8.948;2024-01-15T15:11:41;-1.10;99.90
20380;DHT22;10349;48.666;8.948;2024-01-15T15:14:07;-1.10;99.90
20380;DHT22;10349;48.666;8.948;2024-01-15T15:16:32;-1.00;99.90
20380;DHT22;10349;48.666;8.948;2024-01-15T15:18:58;-1.00;99.90
20380;DHT22;10349;48.666;8.948;2024-01-15T15:21:23;-1.00;99.90
20380;DHT22;10349;48.666;8.948;2024-01-15T15:23:49;-1.00;99.90
20380;DHT22;10349;48.666;8.948;2024-01-15T15:26:15;-1.00;99.90
20380;DHT22;10349;48.666;8.948;2024-01-15T15:28:40;-1.00;99.90